createdAt,value
2023-05-05T00:00:27.655Z,11.04
2023-05-05T00:01:27.635Z,11.03
2023-05-05T00:02:27.710Z,11.04
2023-05-05T00:03:27.775Z,11.04
2023-05-05T00:04:27.632Z,11.06
2023-05-05T00:05:27.624Z,11.04
2023-05-05T00:06:28.495Z,11.04
2023-05-05T00:07:27.600Z,11.02
2023-05-05T00:08:27.565Z,10.99
2023-05-05T00:09:27.590Z,10.97
2023-05-05T00:10:27.561Z,10.96
2023-05-05T00:11:27.542Z,10.92
2023-05-05T00:12:27.538Z,10.89
2023-05-05T00:13:27.548Z,10.88
2023-05-05T00:14:27.521Z,10.84
2023-05-05T00:15:27.513Z,10.82
2023-05-05T00:16:27.493Z,10.84
2023-05-05T00:17:27.499Z,10.86
2023-05-05T00:18:27.484Z,10.84
2023-05-05T00:19:27.444Z,10.82
2023-05-05T00:20:27.533Z,10.84
2023-05-05T00:21:27.448Z,10.82
2023-05-05T00:22:27.441Z,10.79
2023-05-05T00:23:27.422Z,10.79
2023-05-05T00:24:27.435Z,10.73
2023-05-05T00:25:27.416Z,10.70
2023-05-05T00:26:27.371Z,10.67
2023-05-05T00:27:27.369Z,10.64
2023-05-05T00:28:27.341Z,10.64
2023-05-05T00:29:27.343Z,10.63
2023-05-05T00:30:27.326Z,10.59
2023-05-05T00:31:27.373Z,10.59
2023-05-05T00:32:27.380Z,10.53
2023-05-05T00:33:27.323Z,10.55
2023-05-05T00:34:27.300Z,10.53
2023-05-05T00:35:27.307Z,10.52
2023-05-05T00:36:27.259Z,10.48
2023-05-05T00:37:27.296Z,10.45
2023-05-05T00:38:27.243Z,10.44
2023-05-05T00:39:27.286Z,10.41
2023-05-05T00:40:27.240Z,10.36
2023-05-05T00:41:27.279Z,10.33
2023-05-05T00:42:27.210Z,10.30
2023-05-05T00:43:27.215Z,10.25
2023-05-05T00:44:27.194Z,10.20
2023-05-05T00:45:27.194Z,10.22
2023-05-05T00:46:27.263Z,10.27
2023-05-05T00:47:27.190Z,10.26
2023-05-05T00:48:27.160Z,10.27
2023-05-05T00:49:27.177Z,10.26
2023-05-05T00:50:27.131Z,10.23
2023-05-05T00:51:27.181Z,10.22
2023-05-05T00:52:27.093Z,10.17
2023-05-05T00:53:27.136Z,10.12
2023-05-05T00:54:27.083Z,10.14
2023-05-05T00:55:27.066Z,10.17
2023-05-05T00:56:27.064Z,10.18
2023-05-05T00:57:27.054Z,10.20
2023-05-05T00:58:27.029Z,10.22
2023-05-05T00:59:27.026Z,10.23
2023-05-05T01:00:27.011Z,10.25
2023-05-05T01:01:27.048Z,10.22
2023-05-05T01:02:27.019Z,10.17
2023-05-05T01:03:27.150Z,10.18
2023-05-05T01:04:26.986Z,10.17
2023-05-05T01:05:27.000Z,10.12
2023-05-05T01:06:26.956Z,10.12
2023-05-05T01:07:26.935Z,10.12
2023-05-05T01:08:26.928Z,10.12
2023-05-05T01:09:26.949Z,10.14
2023-05-05T01:10:34.436Z,10.09
2023-05-05T01:11:29.666Z,10.08
2023-05-05T01:12:26.899Z,10.05
2023-05-05T01:13:28.666Z,10.05
2023-05-05T01:14:26.855Z,10.01
2023-05-05T01:15:26.866Z,9.97
2023-05-05T01:16:26.886Z,9.94
2023-05-05T01:17:26.861Z,9.90
2023-05-05T01:18:26.820Z,9.93
2023-05-05T01:19:26.822Z,9.91
2023-05-05T01:20:26.796Z,9.86
2023-05-05T01:21:26.811Z,9.84
2023-05-05T01:22:27.083Z,9.86
2023-05-05T01:23:26.786Z,9.86
2023-05-05T01:24:26.752Z,9.83
2023-05-05T01:25:26.763Z,9.83
2023-05-05T01:26:26.728Z,9.81
2023-05-05T01:27:26.737Z,9.83
2023-05-05T01:28:26.731Z,9.78
2023-05-05T01:29:26.691Z,9.76
2023-05-05T01:30:26.709Z,9.78
2023-05-05T01:31:26.807Z,9.78
2023-05-05T01:32:26.741Z,9.75
2023-05-05T01:33:26.812Z,9.74
2023-05-05T01:34:26.636Z,9.74
2023-05-05T01:35:26.643Z,9.78
2023-05-05T01:36:26.644Z,9.84
2023-05-05T01:37:26.646Z,9.90
2023-05-05T01:38:26.639Z,9.94
2023-05-05T01:39:26.593Z,9.91
2023-05-05T01:40:26.585Z,9.99
2023-05-05T01:41:26.577Z,10.02
2023-05-05T01:42:26.567Z,10.02
2023-05-05T01:43:26.849Z,10.04
2023-05-05T01:44:26.534Z,10.04
2023-05-05T01:45:26.564Z,10.04
2023-05-05T01:46:26.515Z,10.07
2023-05-05T01:47:26.576Z,10.08
2023-05-05T01:48:26.501Z,10.09
2023-05-05T01:49:26.486Z,10.07
2023-05-05T01:50:26.476Z,10.09
2023-05-05T01:51:26.474Z,10.11
2023-05-05T01:52:26.444Z,10.17
2023-05-05T01:53:27.332Z,10.20
2023-05-05T01:54:26.504Z,10.18
2023-05-05T01:55:26.439Z,10.18
2023-05-05T01:56:26.426Z,10.20
2023-05-05T01:57:26.418Z,10.20
2023-05-05T01:58:26.392Z,10.23
2023-05-05T01:59:26.392Z,10.23
2023-05-05T02:00:26.352Z,10.25
2023-05-05T02:01:26.437Z,10.30
2023-05-05T02:02:26.414Z,10.33
2023-05-05T02:03:26.440Z,10.33
2023-05-05T02:04:26.319Z,10.38
2023-05-05T02:05:26.330Z,10.41
2023-05-05T02:06:26.300Z,10.42
2023-05-05T02:07:26.321Z,10.48
2023-05-05T02:08:26.320Z,10.48
2023-05-05T02:09:26.267Z,10.48
2023-05-05T02:10:35.824Z,10.48
2023-05-05T02:11:26.393Z,10.48
2023-05-05T02:12:26.213Z,10.51
2023-05-05T02:13:34.810Z,10.48
2023-05-05T02:14:26.216Z,10.48
2023-05-05T02:15:26.226Z,10.51
2023-05-05T02:16:26.185Z,10.51
2023-05-05T02:17:26.302Z,10.51
2023-05-05T02:18:26.191Z,10.52
2023-05-05T02:19:26.167Z,10.53
2023-05-05T02:20:26.149Z,10.52
2023-05-05T02:21:26.171Z,10.51
2023-05-05T02:22:26.126Z,10.48
2023-05-05T02:23:26.133Z,10.47
2023-05-05T02:24:26.173Z,10.47
2023-05-05T02:25:26.094Z,10.47
2023-05-05T02:26:26.106Z,10.44
2023-05-05T02:27:26.090Z,10.42
2023-05-05T02:28:26.075Z,10.44
2023-05-05T02:29:26.105Z,10.41
2023-05-05T02:30:26.036Z,10.38
2023-05-05T02:31:26.110Z,10.34
2023-05-05T02:32:26.058Z,10.32
2023-05-05T02:33:26.034Z,10.27
2023-05-05T02:34:25.996Z,10.23
2023-05-05T02:35:26.020Z,10.18
2023-05-05T02:36:26.016Z,10.15
2023-05-05T02:37:25.989Z,10.14
2023-05-05T02:38:25.943Z,10.11
2023-05-05T02:39:25.976Z,10.07
2023-05-05T02:40:25.938Z,10.05
2023-05-05T02:41:25.944Z,10.05
2023-05-05T02:42:25.916Z,10.01
2023-05-05T02:43:26.176Z,9.97
2023-05-05T02:44:25.949Z,9.91
2023-05-05T02:45:25.889Z,9.89
2023-05-05T02:46:25.894Z,9.83
2023-05-05T02:47:25.913Z,9.81
2023-05-05T02:48:25.843Z,9.79
2023-05-05T02:49:25.838Z,9.76
2023-05-05T02:50:25.884Z,9.74
2023-05-05T02:51:25.827Z,9.71
2023-05-05T02:52:25.805Z,9.69
2023-05-05T02:53:25.839Z,9.68
2023-05-05T02:54:25.772Z,9.66
2023-05-05T02:55:25.837Z,9.61
2023-05-05T02:56:25.772Z,9.64
2023-05-05T02:57:25.771Z,9.64
2023-05-05T02:58:25.748Z,9.65
2023-05-05T02:59:25.752Z,9.66
2023-05-05T03:00:25.739Z,9.65
2023-05-05T03:01:25.774Z,9.61
2023-05-05T03:02:25.775Z,9.61
2023-05-05T03:03:25.790Z,9.61
2023-05-05T03:04:25.668Z,9.61
2023-05-05T03:05:25.705Z,9.58
2023-05-05T03:06:25.649Z,9.60
2023-05-05T03:07:25.660Z,9.61
2023-05-05T03:08:25.642Z,9.57
2023-05-05T03:09:25.639Z,9.57
2023-05-05T03:10:25.614Z,9.54
2023-05-05T03:11:25.630Z,9.51
2023-05-05T03:12:25.619Z,9.48
2023-05-05T03:13:25.593Z,9.46
2023-05-05T03:14:25.551Z,9.40
2023-05-05T03:15:25.586Z,9.39
2023-05-05T03:16:25.634Z,9.33
2023-05-05T03:17:25.597Z,9.31
2023-05-05T03:18:25.513Z,9.31
2023-05-05T03:19:25.535Z,9.28
2023-05-05T03:20:25.530Z,9.31
2023-05-05T03:21:25.497Z,9.35
2023-05-05T03:22:25.474Z,9.35
2023-05-05T03:23:25.484Z,9.35
2023-05-05T03:24:25.497Z,9.33
2023-05-05T03:25:25.496Z,9.29
2023-05-05T03:26:25.482Z,9.28
2023-05-05T03:27:25.537Z,9.24
2023-05-05T03:28:25.447Z,9.20
2023-05-05T03:29:25.432Z,9.20
2023-05-05T03:30:25.393Z,9.21
2023-05-05T03:31:25.427Z,9.17
2023-05-05T03:32:25.384Z,9.14
2023-05-05T03:33:25.532Z,9.11
2023-05-05T03:34:25.347Z,9.10
2023-05-05T03:35:25.361Z,9.05
2023-05-05T03:36:27.183Z,9.08
2023-05-05T03:37:25.326Z,9.08
2023-05-05T03:38:25.314Z,9.05
2023-05-05T03:39:25.315Z,9.04
2023-05-05T03:40:36.349Z,8.99
2023-05-05T03:41:26.300Z,8.95
2023-05-05T03:42:25.274Z,8.94
2023-05-05T03:43:25.264Z,8.89
2023-05-05T03:44:25.259Z,8.86
2023-05-05T03:45:25.245Z,8.89
2023-05-05T03:46:25.247Z,8.89
2023-05-05T03:47:25.677Z,8.89
2023-05-05T03:48:25.214Z,8.89
2023-05-05T03:49:25.212Z,8.86
2023-05-05T03:50:25.188Z,8.87
2023-05-05T03:51:25.203Z,8.83
2023-05-05T03:52:25.157Z,8.83
2023-05-05T03:53:25.170Z,8.83
2023-05-05T03:54:25.139Z,8.83
2023-05-05T03:55:25.187Z,8.83
2023-05-05T03:56:25.154Z,8.81
2023-05-05T03:57:25.188Z,8.83
2023-05-05T03:58:25.136Z,8.83
2023-05-05T03:59:25.096Z,8.86
2023-05-05T04:00:25.066Z,8.87
2023-05-05T04:01:25.079Z,8.91
2023-05-05T04:02:25.138Z,8.96
2023-05-05T04:03:25.272Z,9.01
2023-05-05T04:04:25.106Z,9.02
2023-05-05T04:05:25.024Z,9.10
2023-05-05T04:06:25.038Z,9.15
2023-05-05T04:07:25.030Z,9.20
2023-05-05T04:08:25.003Z,9.26
2023-05-05T04:09:24.975Z,9.28
2023-05-05T04:10:24.977Z,9.32
2023-05-05T04:11:24.980Z,9.36
2023-05-05T04:12:24.970Z,9.40
2023-05-05T04:13:24.959Z,9.46
2023-05-05T04:14:24.970Z,9.50
2023-05-05T04:15:24.932Z,9.54
2023-05-05T04:16:24.999Z,9.56
2023-05-05T04:17:24.910Z,9.61
2023-05-05T04:18:24.908Z,9.64
2023-05-05T04:19:24.904Z,9.65
2023-05-05T04:20:24.894Z,9.65
2023-05-05T04:21:24.876Z,9.65
2023-05-05T04:22:24.859Z,9.66
2023-05-05T04:23:24.843Z,9.74
2023-05-05T04:24:24.927Z,9.76
2023-05-05T04:25:24.839Z,9.76
2023-05-05T04:26:24.816Z,9.79
2023-05-05T04:27:24.815Z,9.83
2023-05-05T04:28:24.997Z,9.81
2023-05-05T04:29:24.781Z,9.79
2023-05-05T04:30:24.803Z,9.81
2023-05-05T04:31:24.800Z,9.84
2023-05-05T04:32:24.791Z,9.83
2023-05-05T04:33:24.734Z,9.83
2023-05-05T04:34:24.730Z,9.83
2023-05-05T04:35:24.702Z,9.81
2023-05-05T04:36:24.696Z,9.81
2023-05-05T04:37:24.678Z,9.79
2023-05-05T04:38:24.721Z,9.79
2023-05-05T04:39:24.653Z,9.75
2023-05-05T04:40:24.665Z,9.75
2023-05-05T04:41:24.655Z,9.72
2023-05-05T04:42:24.654Z,9.68
2023-05-05T04:43:24.841Z,9.68
2023-05-05T04:44:24.654Z,9.66
2023-05-05T04:45:24.604Z,9.64
2023-05-05T04:46:24.633Z,9.66
2023-05-05T04:47:24.587Z,9.65
2023-05-05T04:48:24.581Z,9.66
2023-05-05T04:49:24.555Z,9.68
2023-05-05T04:50:24.544Z,9.72
2023-05-05T04:51:24.557Z,9.78
2023-05-05T04:52:24.551Z,9.83
2023-05-05T04:53:28.546Z,9.87
2023-05-05T04:54:24.515Z,9.90
2023-05-05T04:55:24.487Z,9.91
2023-05-05T04:56:24.503Z,9.93
2023-05-05T04:57:24.485Z,9.99
2023-05-05T04:58:24.470Z,10.04
2023-05-05T04:59:24.494Z,10.08
2023-05-05T05:00:24.449Z,10.14
2023-05-05T05:01:24.459Z,10.17
2023-05-05T05:02:24.543Z,10.18
2023-05-05T05:03:24.502Z,10.20
2023-05-05T05:04:24.417Z,10.23
2023-05-05T05:05:24.372Z,10.26
2023-05-05T05:06:24.388Z,10.27
2023-05-05T05:07:24.378Z,10.32
2023-05-05T05:08:24.361Z,10.40
2023-05-05T05:09:24.334Z,10.45
2023-05-05T05:10:24.347Z,10.59
2023-05-05T05:11:24.340Z,10.66
2023-05-05T05:12:24.331Z,10.71
2023-05-05T05:13:24.400Z,10.82
2023-05-05T05:14:24.303Z,10.88
2023-05-05T05:15:24.283Z,10.97
2023-05-05T05:16:24.300Z,11.03
2023-05-05T05:17:24.282Z,11.10
2023-05-05T05:18:24.256Z,11.17
2023-05-05T05:19:24.228Z,11.21
2023-05-05T05:20:24.238Z,11.24
2023-05-05T05:21:24.199Z,11.28
2023-05-05T05:22:24.217Z,11.33
2023-05-05T05:23:24.205Z,11.39
2023-05-05T05:24:24.206Z,11.49
2023-05-05T05:25:24.174Z,11.55
2023-05-05T05:26:24.169Z,11.61
2023-05-05T05:27:24.132Z,11.67
2023-05-05T05:28:24.143Z,11.75
2023-05-05T05:29:24.156Z,11.80
2023-05-05T05:30:24.436Z,11.86
2023-05-05T05:31:24.118Z,11.99
2023-05-05T05:32:24.115Z,12.07
2023-05-05T05:33:24.266Z,12.14
2023-05-05T05:34:24.114Z,12.23
2023-05-05T05:35:24.063Z,12.34
2023-05-05T05:36:24.062Z,12.46
2023-05-05T05:37:24.036Z,12.60
2023-05-05T05:38:24.080Z,12.74
2023-05-05T05:39:24.023Z,12.86
2023-05-05T05:40:24.014Z,12.95
2023-05-05T05:41:24.006Z,13.05
2023-05-05T05:42:23.985Z,13.12
2023-05-05T05:43:24.157Z,13.20
2023-05-05T05:44:24.021Z,13.25
2023-05-05T05:45:23.956Z,13.29
2023-05-05T05:46:24.005Z,13.32
2023-05-05T05:47:23.974Z,13.33
2023-05-05T05:48:23.931Z,13.36
2023-05-05T05:49:23.893Z,13.36
2023-05-05T05:50:24.031Z,13.38
2023-05-05T05:51:23.895Z,13.38
2023-05-05T05:52:23.907Z,13.41
2023-05-05T05:53:24.110Z,13.42
2023-05-05T05:54:23.905Z,13.41
2023-05-05T05:55:23.852Z,13.41
2023-05-05T05:56:23.874Z,13.39
2023-05-05T05:57:23.812Z,13.38
2023-05-05T05:58:23.832Z,13.33
2023-05-05T05:59:23.790Z,13.26
2023-05-05T06:00:23.792Z,13.20
2023-05-05T06:01:23.870Z,13.22
2023-05-05T06:02:23.802Z,13.25
2023-05-05T06:03:24.103Z,13.22
2023-05-05T06:04:23.816Z,13.20
2023-05-05T06:05:23.747Z,13.20
2023-05-05T06:06:23.750Z,13.17
2023-05-05T06:07:23.725Z,13.12
2023-05-05T06:08:25.061Z,13.12
2023-05-05T06:09:23.688Z,13.12
2023-05-05T06:10:28.068Z,13.11
2023-05-05T06:11:23.683Z,13.15
2023-05-05T06:12:23.665Z,13.15
2023-05-05T06:13:23.655Z,13.12
2023-05-05T06:14:23.667Z,13.15
2023-05-05T06:15:23.613Z,13.15
2023-05-05T06:16:23.669Z,13.10
2023-05-05T06:17:23.606Z,13.10
2023-05-05T06:18:23.672Z,13.10
2023-05-05T06:19:23.603Z,13.12
2023-05-05T06:20:23.587Z,13.15
2023-05-05T06:21:23.569Z,13.19
2023-05-05T06:22:23.565Z,13.20
2023-05-05T06:23:23.528Z,13.22
2023-05-05T06:24:23.568Z,13.28
2023-05-05T06:25:23.535Z,13.32
2023-05-05T06:26:23.521Z,13.36
2023-05-05T06:27:23.489Z,13.45
2023-05-05T06:28:23.500Z,13.51
2023-05-05T06:29:23.470Z,13.64
2023-05-05T06:30:23.470Z,13.78
2023-05-05T06:31:23.524Z,13.91
2023-05-05T06:32:23.530Z,13.96
2023-05-05T06:33:23.440Z,14.10
2023-05-05T06:34:23.430Z,14.20
2023-05-05T06:35:23.419Z,14.28
2023-05-05T06:36:23.492Z,14.35
2023-05-05T06:37:23.377Z,14.36
2023-05-05T06:38:23.397Z,14.35
2023-05-05T06:39:23.367Z,14.35
2023-05-05T06:40:23.366Z,14.35
2023-05-05T06:41:23.358Z,14.35
2023-05-05T06:42:23.348Z,14.28
2023-05-05T06:43:23.337Z,14.18
2023-05-05T06:44:23.317Z,14.10
2023-05-05T06:45:23.309Z,13.99
2023-05-05T06:46:23.333Z,14.00
2023-05-05T06:47:23.293Z,13.97
2023-05-05T06:48:23.288Z,13.95
2023-05-05T06:49:23.276Z,13.91
2023-05-05T06:50:23.280Z,13.87
2023-05-05T06:51:23.236Z,13.87
2023-05-05T06:52:23.255Z,13.88
2023-05-05T06:53:23.236Z,13.81
2023-05-05T06:54:23.224Z,13.70
2023-05-05T06:55:23.201Z,13.57
2023-05-05T06:56:23.221Z,13.48
2023-05-05T06:57:23.178Z,13.39
2023-05-05T06:58:23.164Z,13.25
2023-05-05T06:59:23.180Z,13.23
2023-05-05T07:00:23.138Z,13.20
2023-05-05T07:01:23.250Z,13.20
2023-05-05T07:02:25.292Z,13.12
2023-05-05T07:03:23.244Z,13.08
2023-05-05T07:04:23.134Z,13.07
2023-05-05T07:05:23.088Z,13.00
2023-05-05T07:06:23.111Z,12.97
2023-05-05T07:07:23.081Z,12.92
2023-05-05T07:08:23.074Z,12.89
2023-05-05T07:09:23.027Z,12.85
2023-05-05T07:11:22.287Z,12.77
2023-05-05T07:12:22.137Z,12.72
2023-05-05T07:13:22.905Z,12.72
2023-05-05T07:14:24.269Z,12.71
2023-05-05T07:15:28.733Z,12.75
2023-05-05T07:16:23.121Z,12.78
2023-05-05T07:17:22.094Z,12.83
2023-05-05T07:18:22.085Z,12.83
2023-05-05T07:19:22.059Z,12.90
2023-05-05T07:20:22.078Z,12.95
2023-05-05T07:21:22.053Z,12.97
2023-05-05T07:22:22.056Z,13.03
2023-05-05T07:23:22.021Z,13.00
2023-05-05T07:24:21.999Z,13.01
2023-05-05T07:25:22.020Z,12.95
2023-05-05T07:26:21.964Z,12.92
2023-05-05T07:27:21.979Z,12.93
2023-05-05T07:28:21.967Z,12.96
2023-05-05T07:29:21.949Z,13.00
2023-05-05T07:30:22.113Z,13.05
2023-05-05T07:31:21.970Z,13.11
2023-05-05T07:32:21.978Z,13.15
2023-05-05T07:33:21.925Z,13.25
2023-05-05T07:34:22.139Z,13.38
2023-05-05T07:35:21.908Z,13.48
2023-05-05T07:36:21.886Z,13.64
2023-05-05T07:37:21.884Z,13.79
2023-05-05T07:38:21.846Z,13.91
2023-05-05T07:39:21.861Z,14.02
2023-05-05T07:40:21.851Z,14.18
2023-05-05T07:41:21.836Z,14.29
2023-05-05T07:42:21.812Z,14.47
2023-05-05T07:43:21.846Z,14.54
2023-05-05T07:44:21.812Z,14.62
2023-05-05T07:45:21.784Z,14.72
2023-05-05T07:46:21.797Z,14.78
2023-05-05T07:47:21.890Z,14.83
2023-05-05T07:48:21.746Z,14.91
2023-05-05T07:49:21.780Z,14.89
2023-05-05T07:50:21.729Z,14.96
2023-05-05T07:51:21.698Z,14.96
2023-05-05T07:52:30.072Z,14.96
2023-05-05T07:53:22.702Z,15.06
2023-05-05T07:54:21.674Z,15.11
2023-05-05T07:55:21.688Z,15.19
2023-05-05T07:56:21.883Z,15.23
2023-05-05T07:57:21.668Z,15.36
2023-05-05T07:58:21.660Z,15.44
2023-05-05T07:59:21.652Z,15.60
2023-05-05T08:00:21.632Z,15.62
2023-05-05T08:01:21.624Z,15.59
2023-05-05T08:02:21.647Z,15.62
2023-05-05T08:03:21.732Z,15.60
2023-05-05T08:04:21.648Z,15.64
2023-05-05T08:05:21.614Z,15.65
2023-05-05T08:06:21.532Z,15.64
2023-05-05T08:07:21.545Z,15.64
2023-05-05T08:08:21.546Z,15.67
2023-05-05T08:09:21.535Z,15.67
2023-05-05T08:10:21.501Z,15.65
2023-05-05T08:11:21.512Z,15.68
2023-05-05T08:12:21.494Z,15.71
2023-05-05T08:13:21.491Z,15.75
2023-05-05T08:14:21.462Z,15.87
2023-05-05T08:15:21.460Z,15.93
2023-05-05T08:16:21.470Z,16.02
2023-05-05T08:17:21.510Z,16.15
2023-05-05T08:18:21.413Z,16.30
2023-05-05T08:19:28.759Z,16.45
2023-05-05T08:20:22.424Z,16.52
2023-05-05T08:21:21.401Z,16.63
2023-05-05T08:22:21.372Z,16.71
2023-05-05T08:23:21.389Z,16.68
2023-05-05T08:24:21.375Z,16.68
2023-05-05T08:25:21.350Z,16.73
2023-05-05T08:26:21.349Z,16.75
2023-05-05T08:27:21.332Z,16.76
2023-05-05T08:28:21.326Z,16.82
2023-05-05T08:29:21.306Z,16.75
2023-05-05T08:30:21.276Z,16.79
2023-05-05T08:31:21.358Z,16.82
2023-05-05T08:32:21.286Z,16.83
2023-05-05T08:33:21.271Z,16.89
2023-05-05T08:34:21.279Z,16.89
2023-05-05T08:35:21.260Z,17.04
2023-05-05T08:36:21.778Z,17.06
2023-05-05T08:37:21.238Z,17.06
2023-05-05T08:38:21.201Z,17.06
2023-05-05T08:39:21.232Z,17.07
2023-05-05T08:40:21.421Z,17.08
2023-05-05T08:41:21.191Z,17.08
2023-05-05T08:42:33.297Z,17.06
2023-05-05T08:43:22.168Z,17.04
2023-05-05T08:44:21.140Z,17.01
2023-05-05T08:45:21.132Z,17.04
2023-05-05T08:46:21.150Z,17.08
2023-05-05T08:47:21.114Z,17.08
2023-05-05T08:48:21.099Z,17.14
2023-05-05T08:49:21.106Z,17.08
2023-05-05T08:50:21.082Z,17.15
2023-05-05T08:51:21.088Z,17.22
2023-05-05T08:52:21.092Z,17.37
2023-05-05T08:53:21.061Z,17.49
2023-05-05T08:54:21.052Z,17.58
2023-05-05T08:55:21.060Z,17.71
2023-05-05T08:56:20.995Z,17.92
2023-05-05T08:57:21.031Z,18.29
2023-05-05T08:58:20.981Z,18.67
2023-05-05T08:59:20.994Z,19.04
2023-05-05T09:00:21.005Z,19.47
2023-05-05T09:01:21.041Z,19.66
2023-05-05T09:02:20.963Z,19.92
2023-05-05T09:03:20.967Z,20.33
2023-05-05T09:04:20.929Z,20.62
2023-05-05T09:05:20.912Z,20.87
2023-05-05T09:06:20.921Z,20.94
2023-05-05T09:07:20.929Z,20.95
2023-05-05T09:08:20.871Z,21.04
2023-05-05T09:09:20.889Z,21.32
2023-05-05T09:10:20.861Z,21.61
2023-05-05T09:11:20.872Z,21.83
2023-05-05T09:12:20.829Z,22.09
2023-05-05T09:13:20.888Z,22.33
2023-05-05T09:14:20.833Z,22.68
2023-05-05T09:15:20.827Z,23.09
2023-05-05T09:16:20.802Z,23.32
2023-05-05T09:17:20.799Z,23.36
2023-05-05T09:18:20.790Z,23.42
2023-05-05T09:19:20.791Z,23.61
2023-05-05T09:20:20.809Z,23.61
2023-05-05T09:21:20.746Z,23.55
2023-05-05T09:22:20.742Z,23.40
2023-05-05T09:23:20.750Z,23.16
2023-05-05T09:24:20.718Z,22.88
2023-05-05T09:25:20.752Z,22.79
2023-05-05T09:26:20.703Z,22.64
2023-05-05T09:27:20.711Z,22.64
2023-05-05T09:28:20.671Z,22.51
2023-05-05T09:29:20.655Z,22.72
2023-05-05T09:30:20.703Z,22.73
2023-05-05T09:31:20.688Z,22.58
2023-05-05T09:32:20.633Z,22.64
2023-05-05T09:33:20.645Z,22.91
2023-05-05T09:34:20.608Z,22.98
2023-05-05T09:35:20.602Z,23.25
2023-05-05T09:36:20.587Z,23.36
2023-05-05T09:37:20.607Z,23.42
2023-05-05T09:38:20.728Z,23.53
2023-05-05T09:39:20.595Z,23.66
2023-05-05T09:40:20.711Z,23.69
2023-05-05T09:41:20.528Z,23.42
2023-05-05T09:42:20.517Z,23.25
2023-05-05T09:43:20.517Z,22.94
2023-05-05T09:44:20.509Z,22.40
2023-05-05T09:45:20.500Z,21.94
2023-05-05T09:46:20.521Z,21.90
2023-05-05T09:47:29.282Z,22.05
2023-05-05T09:48:21.476Z,22.33
2023-05-05T09:49:20.567Z,22.73
2023-05-05T09:50:20.528Z,22.62
2023-05-05T09:51:20.442Z,22.03
2023-05-05T09:52:20.411Z,21.58
2023-05-05T09:53:20.405Z,21.27
2023-05-05T09:54:20.391Z,21.64
2023-05-05T09:55:20.398Z,22.40
2023-05-05T09:56:20.732Z,23.07
2023-05-05T09:57:20.394Z,23.43
2023-05-05T09:58:20.406Z,24.08
2023-05-05T09:59:20.353Z,24.57
2023-05-05T10:00:20.344Z,24.39
2023-05-05T10:01:20.821Z,24.08
2023-05-05T10:02:20.293Z,23.98
2023-05-05T10:03:20.305Z,24.39
2023-05-05T10:04:20.282Z,24.64
2023-05-05T10:05:20.317Z,24.53
2023-05-05T10:06:20.256Z,24.45
2023-05-05T10:07:20.254Z,24.53
2023-05-05T10:08:20.248Z,24.83
2023-05-05T10:09:20.276Z,24.98
2023-05-05T10:10:20.246Z,25.06
2023-05-05T10:11:20.218Z,24.91
2023-05-05T10:12:20.210Z,24.67
2023-05-05T10:13:20.234Z,24.71
2023-05-05T10:14:20.177Z,24.55
2023-05-05T10:15:20.162Z,24.55
2023-05-05T10:16:20.228Z,24.67
2023-05-05T10:17:20.164Z,24.83
2023-05-05T10:18:20.163Z,24.73
2023-05-05T10:19:20.125Z,24.83
2023-05-05T10:20:20.123Z,24.80
2023-05-05T10:21:20.136Z,24.69
2023-05-05T10:22:20.093Z,24.64
2023-05-05T10:23:20.108Z,24.99
2023-05-05T10:24:20.096Z,25.35
2023-05-05T10:25:20.064Z,25.57
2023-05-05T10:26:20.065Z,25.80
2023-05-05T10:27:20.037Z,26.01
2023-05-05T10:28:20.014Z,25.88
2023-05-05T10:29:20.053Z,25.79
2023-05-05T10:30:20.020Z,25.72
2023-05-05T10:31:25.105Z,25.51
2023-05-05T10:32:47.053Z,25.17
2023-05-05T10:34:19.994Z,24.64
2023-05-05T10:35:19.967Z,24.53
2023-05-05T10:36:19.945Z,24.53
2023-05-05T10:37:19.945Z,24.27
2023-05-05T10:38:19.906Z,23.84
2023-05-05T10:39:19.966Z,23.60
2023-05-05T10:40:19.993Z,23.65
2023-05-05T10:41:19.912Z,23.70
2023-05-05T10:42:19.896Z,23.47
2023-05-05T10:43:19.893Z,23.50
2023-05-05T10:44:19.879Z,23.48
2023-05-05T10:45:19.955Z,23.58
2023-05-05T10:46:19.887Z,23.79
2023-05-05T10:47:19.874Z,23.90
2023-05-05T10:48:19.887Z,23.88
2023-05-05T10:49:19.836Z,23.68
2023-05-05T10:50:19.811Z,23.40
2023-05-05T10:51:31.016Z,23.04
2023-05-05T10:52:20.797Z,23.00
2023-05-05T10:53:19.767Z,23.12
2023-05-05T10:54:19.810Z,23.40
2023-05-05T10:55:19.759Z,23.75
2023-05-05T10:56:19.751Z,23.84
2023-05-05T10:57:19.745Z,23.73
2023-05-05T10:58:19.730Z,23.55
2023-05-05T10:59:19.721Z,23.27
2023-05-05T11:00:19.758Z,23.10
2023-05-05T11:01:19.705Z,22.88
2023-05-05T11:02:19.681Z,22.94
2023-05-05T11:03:19.767Z,23.15
2023-05-05T11:04:19.674Z,23.07
2023-05-05T11:05:19.644Z,22.76
2023-05-05T11:06:19.654Z,22.82
2023-05-05T11:07:19.625Z,23.17
2023-05-05T11:08:19.632Z,23.50
2023-05-05T11:09:19.602Z,23.80
2023-05-05T11:10:19.605Z,24.27
2023-05-05T11:11:19.659Z,24.50
2023-05-05T11:12:19.596Z,24.57
2023-05-05T11:13:19.674Z,24.49
2023-05-05T11:14:19.575Z,24.62
2023-05-05T11:15:19.532Z,24.81
2023-05-05T11:16:19.557Z,24.91
2023-05-05T11:17:19.552Z,24.91
2023-05-05T11:18:19.530Z,24.84
2023-05-05T11:19:19.482Z,24.80
2023-05-05T11:20:19.502Z,24.77
2023-05-05T11:21:19.476Z,24.62
2023-05-05T11:22:19.488Z,24.57
2023-05-05T11:23:19.445Z,24.71
2023-05-05T11:24:19.464Z,24.83
2023-05-05T11:25:19.442Z,24.90
2023-05-05T11:26:19.449Z,24.83
2023-05-05T11:27:19.402Z,24.80
2023-05-05T11:28:19.418Z,24.83
2023-05-05T11:29:19.386Z,24.67
2023-05-05T11:30:19.385Z,24.73
2023-05-05T11:31:19.450Z,24.85
2023-05-05T11:32:19.369Z,24.96
2023-05-05T11:33:19.358Z,24.62
2023-05-05T11:34:19.353Z,24.65
2023-05-05T11:35:19.325Z,24.84
2023-05-05T11:36:19.347Z,24.90
2023-05-05T11:37:19.359Z,25.13
2023-05-05T11:38:19.319Z,25.15
2023-05-05T11:39:19.303Z,25.18
2023-05-05T11:40:19.332Z,25.15
2023-05-05T11:41:19.276Z,24.69
2023-05-05T11:42:19.395Z,24.58
2023-05-05T11:43:19.254Z,24.39
2023-05-05T11:44:19.270Z,24.47
2023-05-05T11:45:19.226Z,24.76
2023-05-05T11:46:19.273Z,24.95
2023-05-05T11:47:19.288Z,25.08
2023-05-05T11:48:19.240Z,25.17
2023-05-05T11:49:19.204Z,25.39
2023-05-05T11:50:19.214Z,25.38
2023-05-05T11:51:19.191Z,25.46
2023-05-05T11:52:19.169Z,25.47
2023-05-05T11:53:19.145Z,25.51
2023-05-05T11:54:19.143Z,25.35
2023-05-05T11:55:19.117Z,25.50
2023-05-05T11:56:19.407Z,25.80
2023-05-05T11:57:19.100Z,25.95
2023-05-05T11:58:19.117Z,26.07
2023-05-05T11:59:19.094Z,26.25
2023-05-05T12:00:19.097Z,26.32
2023-05-05T12:01:19.065Z,26.50
2023-05-05T12:02:19.116Z,26.70
2023-05-05T12:03:19.151Z,26.81
2023-05-05T12:04:19.069Z,26.99
2023-05-05T12:05:19.034Z,27.03
2023-05-05T12:06:19.030Z,26.91
2023-05-05T12:07:19.014Z,26.92
2023-05-05T12:08:19.018Z,26.65
2023-05-05T12:09:19.003Z,26.54
2023-05-05T12:10:18.990Z,26.65
2023-05-05T12:11:18.972Z,26.80
2023-05-05T12:12:18.999Z,26.97
2023-05-05T12:13:19.118Z,27.07
2023-05-05T12:14:19.007Z,27.02
2023-05-05T12:15:18.928Z,27.03
2023-05-05T12:16:18.961Z,26.97
2023-05-05T12:17:18.904Z,26.82
2023-05-05T12:18:18.907Z,26.88
2023-05-05T12:19:18.888Z,26.54
2023-05-05T12:20:18.886Z,26.06
2023-05-05T12:21:18.857Z,25.69
2023-05-05T12:22:18.866Z,25.77
2023-05-05T12:23:18.830Z,25.75
2023-05-05T12:24:18.842Z,25.98
2023-05-05T12:25:18.842Z,26.17
2023-05-05T12:26:18.818Z,26.13
2023-05-05T12:27:18.796Z,26.25
2023-05-05T12:28:18.833Z,26.37
2023-05-05T12:29:18.796Z,26.44
2023-05-05T12:30:18.924Z,26.40
2023-05-05T12:31:18.814Z,26.55
2023-05-05T12:32:18.780Z,26.47
2023-05-05T12:33:18.742Z,26.35
2023-05-05T12:34:18.759Z,26.29
2023-05-05T12:35:18.744Z,26.17
2023-05-05T12:36:18.733Z,26.09
2023-05-05T12:37:18.725Z,25.90
2023-05-05T12:38:18.738Z,26.02
2023-05-05T12:39:18.692Z,26.05
2023-05-05T12:40:18.694Z,25.82
2023-05-05T12:41:18.668Z,25.58
2023-05-05T12:42:18.694Z,25.69
2023-05-05T12:43:18.638Z,25.72
2023-05-05T12:44:18.733Z,25.83
2023-05-05T12:45:18.617Z,26.07
2023-05-05T12:46:18.641Z,26.29
2023-05-05T12:47:18.593Z,26.55
2023-05-05T12:48:18.602Z,26.65
2023-05-05T12:49:18.582Z,26.54
2023-05-05T12:50:18.598Z,26.57
2023-05-05T12:51:18.598Z,26.60
2023-05-05T12:52:18.581Z,26.43
2023-05-05T12:53:18.551Z,26.18
2023-05-05T12:54:18.549Z,25.95
2023-05-05T12:55:18.525Z,25.76
2023-05-05T12:56:18.542Z,25.52
2023-05-05T12:57:18.500Z,25.30
2023-05-05T12:58:18.497Z,25.10
2023-05-05T12:59:18.486Z,24.96